Time;durP1;ratioP1;P1;durP2;ratioP2;P2;SDS_P1;SDS_P2;PMS_P1;PMS_P2;Temp;Humidity;BMP_temperature;BMP_pressure;BME280_temperature;BME280_humidity;BME280_pressure;Samples;Min_cycle;Max_cycle;Signal;HPM_P1;HPM_P2
2023/08/10 00:02:26;;;;;;;2.67;2.47;;;;;;;13.34;82.33;101333.94;5035798;28;20221;-70
2023/08/10 00:04:52;;;;;;;5.70;2.47;;;;;;;13.27;82.41;101331.03;5037585;28;20207;-70
2023/08/10 00:07:19;;;;;;;3.13;2.13;;;;;;;13.20;82.58;101333.44;5039031;28;20199;-70
2023/08/10 00:09:46;;;;;;;3.13;2.50;;;;;;;13.12;82.71;101326.31;5036293;28;20657;-70
2023/08/10 00:12:12;;;;;;;4.13;2.17;;;;;;;13.06;82.68;101325.75;5040096;28;20696;-70
2023/08/10 00:14:39;;;;;;;4.13;2.43;;;;;;;13.00;83.45;101334.22;5034890;28;20228;-70
2023/08/10 00:17:06;;;;;;;3.17;2.57;;;;;;;12.93;83.35;101332.03;5036675;28;20320;-70
2023/08/10 00:19:32;;;;;;;2.50;2.30;;;;;;;12.86;83.70;101323.03;5034167;28;20646;-70
2023/08/10 00:21:58;;;;;;;3.37;2.40;;;;;;;12.80;83.64;101324.31;5035001;28;20608;-70
2023/08/10 00:24:25;;;;;;;5.20;2.50;;;;;;;12.75;83.82;101329.81;5033558;28;20216;-69
2023/08/10 00:26:51;;;;;;;2.97;2.60;;;;;;;12.68;84.13;101321.59;5035390;28;20455;-70
2023/08/10 00:29:17;;;;;;;3.40;2.50;;;;;;;12.62;84.31;101322.91;5036347;28;20226;-69
2023/08/10 00:31:45;;;;;;;3.73;2.60;;;;;;;12.57;84.40;101323.06;5038578;28;20223;-70
2023/08/10 00:34:12;;;;;;;4.57;2.50;;;;;;;12.51;84.59;101321.69;5035427;28;20297;-70
2023/08/10 00:36:38;;;;;;;4.30;2.63;;;;;;;12.48;84.74;101319.69;5036870;28;20766;-70
2023/08/10 00:39:05;;;;;;;6.27;2.47;;;;;;;12.43;85.32;101322.53;5037235;28;20237;-70
2023/08/10 00:41:32;;;;;;;2.73;2.27;;;;;;;12.38;85.33;101323.47;5015950;28;20196;-69
2023/08/10 00:43:58;;;;;;;3.43;2.43;;;;;;;12.32;85.85;101318.69;5013740;28;20738;-70
2023/08/10 00:46:27;;;;;;;2.70;2.40;;;;;;;12.27;85.53;101321.50;5035209;28;20193;-70
2023/08/10 00:48:54;;;;;;;4.73;2.70;;;;;;;12.23;85.66;101320.59;5017942;28;21844;-70
2023/08/10 00:51:21;;;;;;;5.17;2.47;;;;;;;12.18;85.52;101326.06;5019949;28;20236;-70
2023/08/10 00:53:47;;;;;;;2.40;2.20;;;;;;;12.13;85.96;101321.72;5017136;28;20210;-70
2023/08/10 00:56:14;;;;;;;3.30;2.60;;;;;;;12.10;85.59;101324.19;5019813;28;20589;-70
2023/08/10 00:58:41;;;;;;;2.53;2.33;;;;;;;12.06;86.76;101324.06;5018687;28;20208;-70
2023/08/10 01:01:08;;;;;;;2.77;2.53;;;;;;;12.05;86.79;101321.72;5020569;28;20592;-71
2023/08/10 01:03:35;;;;;;;3.20;2.40;;;;;;;11.98;86.93;101327.53;5017761;28;20268;-70
2023/08/10 01:06:12;;;;;;;2.60;2.40;;;;;;;11.96;86.64;101329.69;5039139;28;20196;-71
2023/08/10 01:08:46;;;;;;;3.23;2.63;;;;;;;11.92;86.77;101336.72;5040655;28;20211;-70
2023/08/10 01:11:23;;;;;;;2.97;2.17;;;;;;;11.91;87.03;101331.75;5037916;28;20212;-70
2023/08/10 01:13:56;;;;;;;2.73;2.50;;;;;;;11.88;87.06;101329.72;5020374;28;20306;-70
2023/08/10 01:16:23;;;;;;;3.00;2.70;;;;;;;11.79;86.88;101329.75;5039531;28;20510;-70
2023/08/10 01:18:51;;;;;;;3.43;2.87;;;;;;;11.76;86.89;101338.31;5041094;28;20659;-70
2023/08/10 01:21:38;;;;;;;3.13;2.47;;;;;;;11.71;87.32;101340.34;5040415;28;20216;-70
2023/08/10 01:24:11;;;;;;;7.80;4.20;;;;;;;11.67;86.97;101334.91;5040821;28;20213;-70
2023/08/10 01:26:39;;;;;;;4.70;2.50;;;;;;;11.62;87.10;101340.38;5022202;28;20204;-70
2023/08/10 01:29:06;;;;;;;3.83;2.43;;;;;;;11.59;87.41;101329.66;5034241;28;20327;-70
2023/08/10 01:31:32;;;;;;;2.40;2.20;;;;;;;11.56;87.93;101333.66;5017592;28;20224;-71
2023/08/10 01:33:58;;;;;;;3.10;2.50;;;;;;;11.55;88.07;101332.09;5031462;28;20600;-71
2023/08/10 01:36:25;;;;;;;2.93;2.73;;;;;;;11.52;88.24;101345.94;5022521;28;20230;-70
2023/08/10 01:38:51;;;;;;;3.10;2.40;;;;;;;11.49;87.62;101345.81;5038578;28;20227;-71
2023/08/10 01:41:17;;;;;;;4.17;2.20;;;;;;;11.45;87.79;101345.63;5039306;28;20203;-70
2023/08/10 01:43:45;;;;;;;5.37;2.60;;;;;;;11.42;88.26;101354.19;5032735;28;20568;-70
2023/08/10 01:46:16;;;;;;;3.30;2.27;;;;;;;11.42;88.54;101353.41;5039053;28;20685;-70
2023/08/10 01:48:45;;;;;;;2.70;2.10;;;;;;;11.40;88.47;101351.09;5020719;28;20208;-70
2023/08/10 01:51:15;;;;;;;2.43;2.23;;;;;;;11.37;89.02;101345.63;5036460;28;20222;-70
2023/08/10 01:53:43;;;;;;;4.60;2.60;;;;;;;11.33;88.26;101345.47;5022134;28;20207;-70
2023/08/10 01:56:09;;;;;;;3.27;2.97;;;;;;;11.32;88.49;101351.88;5022162;28;20240;-70
2023/08/10 01:58:36;;;;;;;2.73;2.53;;;;;;;11.28;89.17;101356.22;5023265;28;20217;-70
2023/08/10 02:01:04;;;;;;;3.50;2.70;;;;;;;11.27;89.04;101345.94;5039690;28;20203;-70
2023/08/10 02:03:30;;;;;;;4.83;2.57;;;;;;;11.25;89.42;101358.69;5022842;28;20220;-70
2023/08/10 02:05:57;;;;;;;2.53;2.33;;;;;;;11.25;89.17;101359.50;5036065;28;20192;-69
2023/08/10 02:08:23;;;;;;;4.23;2.80;;;;;;;11.25;89.17;101350.78;5039050;28;20292;-70
2023/08/10 02:10:49;;;;;;;4.30;2.30;;;;;;;11.23;89.91;101350.31;5039028;28;20927;-70
2023/08/10 02:13:16;;;;;;;4.37;3.13;;;;;;;11.21;89.09;101353.25;5039864;28;20200;-70
2023/08/10 02:15:43;;;;;;;3.80;2.43;;;;;;;11.22;90.00;101359.31;5036419;28;20242;-70
2023/08/10 02:18:13;;;;;;;4.50;2.50;;;;;;;11.20;90.11;101351.72;5037013;28;20752;-71
2023/08/10 02:20:39;;;;;;;3.20;2.40;;;;;;;11.21;90.50;101347.19;5020030;28;20223;-70
2023/08/10 02:23:07;;;;;;;2.70;2.40;;;;;;;11.18;89.93;101345.94;5017624;28;20272;-70
2023/08/10 02:25:33;;;;;;;2.53;2.33;;;;;;;11.15;89.43;101349.22;5039472;28;20230;-70
2023/08/10 02:28:00;;;;;;;2.63;2.23;;;;;;;11.16;89.38;101347.34;5038836;28;20577;-70
2023/08/10 02:30:26;;;;;;;3.30;2.17;;;;;;;11.15;89.67;101359.00;5020424;28;20705;-70
2023/08/10 02:32:52;;;;;;;3.57;2.37;;;;;;;11.12;89.87;101363.03;5038906;28;20673;-70
2023/08/10 02:35:22;;;;;;;5.60;2.90;;;;;;;11.14;89.77;101357.47;5020065;28;20297;-70
2023/08/10 02:37:49;;;;;;;3.40;2.50;;;;;;;11.11;89.59;101360.72;5035853;28;20231;-71
2023/08/10 02:40:15;;;;;;;4.03;2.60;;;;;;;11.11;90.58;101356.22;5034848;28;20227;-70
2023/08/10 02:42:43;;;;;;;2.97;2.27;;;;;;;11.14;90.06;101347.63;5037843;28;20290;-70
2023/08/10 02:45:10;;;;;;;3.80;2.47;;;;;;;11.14;90.23;101342.34;5015888;28;20286;-70
2023/08/10 02:47:37;;;;;;;2.57;2.37;;;;;;;11.16;90.47;101352.63;5034254;28;20209;-70
2023/08/10 02:50:05;;;;;;;2.60;2.40;;;;;;;11.17;91.33;101347.03;5028920;28;20603;-70
2023/08/10 02:52:33;;;;;;;3.13;2.40;;;;;;;11.14;90.10;101355.56;5014462;28;20727;-70
2023/08/10 02:54:59;;;;;;;2.50;2.30;;;;;;;11.13;89.75;101351.38;5033910;28;20246;-70
2023/08/10 02:57:25;;;;;;;2.73;2.53;;;;;;;11.15;89.63;101356.34;5037573;28;20234;-70
2023/08/10 02:59:52;;;;;;;4.73;2.63;;;;;;;11.16;90.61;101350.78;5034385;28;20223;-70
2023/08/10 03:02:18;;;;;;;4.37;3.10;;;;;;;11.12;90.41;101347.19;5018278;28;20209;-71
2023/08/10 03:04:46;;;;;;;4.13;2.30;;;;;;;11.13;90.20;101348.72;5012836;28;20204;-70
2023/08/10 03:07:13;;;;;;;5.53;2.73;;;;;;;11.11;90.57;101344.84;5014344;28;20200;-71
2023/08/10 03:09:42;;;;;;;2.50;2.30;;;;;;;11.14;90.06;101349.53;5020623;28;20235;-70
2023/08/10 03:12:12;;;;;;;5.57;2.70;;;;;;;11.13;89.73;101345.34;5014996;28;20208;-70
2023/08/10 03:14:38;;;;;;;3.60;2.50;;;;;;;11.12;90.00;101347.19;5018994;28;20639;-71
2023/08/10 03:17:05;;;;;;;6.80;2.53;;;;;;;11.10;90.49;101344.09;5019299;28;20241;-70
2023/08/10 03:19:31;;;;;;;3.63;2.70;;;;;;;11.11;89.83;101352.78;5023489;28;20318;-70
2023/08/10 03:21:58;;;;;;;3.83;2.60;;;;;;;11.12;90.63;101349.81;5036477;28;20228;-70
2023/08/10 03:24:24;;;;;;;4.37;2.63;;;;;;;11.13;89.96;101354.03;5032712;28;20285;-70
2023/08/10 03:26:52;;;;;;;3.50;2.60;;;;;;;11.12;90.03;101362.28;5036948;28;20204;-70
2023/08/10 03:29:20;;;;;;;2.73;2.30;;;;;;;11.13;90.01;101364.59;5019609;28;20604;-70
2023/08/10 03:31:47;;;;;;;3.27;2.53;;;;;;;11.09;89.93;101357.59;5034846;28;20596;-71
2023/08/10 03:34:13;;;;;;;5.00;2.73;;;;;;;11.10;90.72;101364.44;5017444;28;20211;-71
2023/08/10 03:36:40;;;;;;;6.20;2.23;;;;;;;11.08;90.15;101369.28;5034945;28;20219;-70
2023/08/10 03:39:06;;;;;;;3.40;2.73;;;;;;;11.06;90.08;101374.06;5018908;28;20781;-69
2023/08/10 03:41:33;;;;;;;2.97;2.37;;;;;;;10.99;90.32;101379.84;5037508;28;20604;-70
2023/08/10 03:44:01;;;;;;;5.90;2.40;;;;;;;11.00;90.50;101381.38;5020045;28;20203;-70
2023/08/10 03:46:27;;;;;;;4.20;2.23;;;;;;;10.95;90.72;101391.31;5018178;28;20692;-70
2023/08/10 03:48:54;;;;;;;2.63;2.40;;;;;;;10.94;90.88;101395.81;5033575;28;20300;-70
2023/08/10 03:51:20;;;;;;;4.33;2.37;;;;;;;10.93;90.61;101393.50;5037952;28;20222;-70
2023/08/10 03:53:46;;;;;;;3.57;2.37;;;;;;;10.90;90.46;101394.88;5039146;28;20205;-70
2023/08/10 03:56:13;;;;;;;3.50;2.70;;;;;;;10.91;91.44;101393.78;5036994;28;20214;-70
2023/08/10 03:58:39;;;;;;;3.40;2.53;;;;;;;10.87;90.73;101389.44;5035527;28;20396;-70
2023/08/10 04:01:08;;;;;;;3.23;2.60;;;;;;;10.86;90.65;101393.13;5036975;28;20211;-70
2023/08/10 04:03:34;;;;;;;8.13;2.90;;;;;;;10.83;91.19;101399.84;5027791;28;20210;-70
2023/08/10 04:06:01;;;;;;;4.40;2.30;;;;;;;10.85;90.93;101391.59;5035167;28;20211;-70
2023/08/10 04:08:27;;;;;;;2.80;2.60;;;;;;;10.87;91.74;101394.72;5017898;28;20195;-70
2023/08/10 04:10:54;;;;;;;2.60;2.40;;;;;;;10.85;91.23;101392.38;5039180;28;20225;-71
2023/08/10 04:13:20;;;;;;;4.73;2.80;;;;;;;10.85;91.70;101400.31;5035564;28;20269;-70
2023/08/10 04:15:48;;;;;;;4.97;3.10;;;;;;;10.86;91.81;101393.13;5017438;28;20207;-70
2023/08/10 04:18:16;;;;;;;4.97;3.13;;;;;;;10.88;91.97;101397.03;5016592;28;20253;-70
2023/08/10 04:20:43;;;;;;;5.00;3.50;;;;;;;10.90;91.65;101400.16;5015292;28;20609;-70
2023/08/10 04:23:09;;;;;;;7.40;4.20;;;;;;;10.96;91.97;101396.28;5037456;28;20561;-69
2023/08/10 04:25:35;;;;;;;4.57;3.87;;;;;;;10.99;92.08;101397.53;5028947;28;20691;-69
2023/08/10 04:28:02;;;;;;;4.50;3.67;;;;;;;11.01;91.88;101401.44;5034380;28;20560;-70
2023/08/10 04:30:29;;;;;;;5.63;3.97;;;;;;;11.07;92.27;101402.84;5036245;28;20241;-70
2023/08/10 04:32:55;;;;;;;4.37;3.80;;;;;;;11.12;92.91;101404.56;5033918;28;20780;-70
2023/08/10 04:35:23;;;;;;;5.40;4.30;;;;;;;11.17;92.24;101407.03;5035061;28;20585;-70
2023/08/10 04:37:53;;;;;;;5.27;4.20;;;;;;;11.23;92.83;101405.84;5036402;28;20574;-70
2023/08/10 04:40:20;;;;;;;6.00;3.87;;;;;;;11.30;92.33;101401.66;5035644;28;20230;-70
2023/08/10 04:42:46;;;;;;;7.33;4.50;;;;;;;11.36;92.85;101413.63;5035349;28;20302;-70
2023/08/10 04:45:12;;;;;;;5.10;4.03;;;;;;;11.44;92.75;101410.19;5034480;28;20213;-71
2023/08/10 04:47:39;;;;;;;8.30;4.40;;;;;;;11.52;92.43;101417.34;5036236;28;20213;-70
2023/08/10 04:50:07;;;;;;;6.97;4.20;;;;;;;11.59;92.66;101417.69;5016581;28;20376;-70
2023/08/10 04:52:34;;;;;;;5.50;4.10;;;;;;;11.68;92.19;101425.63;5032335;28;20213;-70
2023/08/10 04:55:01;;;;;;;8.43;4.40;;;;;;;11.75;92.25;101418.03;5037838;28;20240;-70
2023/08/10 04:57:27;;;;;;;4.73;4.23;;;;;;;11.80;91.55;101423.16;5033914;28;20701;-70
2023/08/10 04:59:53;;;;;;;4.90;4.00;;;;;;;11.89;91.11;101418.59;5038156;28;20706;-70
2023/08/10 05:02:20;;;;;;;4.47;4.07;;;;;;;11.94;90.65;101416.59;5033081;28;20200;-70
2023/08/10 05:04:46;;;;;;;4.50;4.03;;;;;;;12.02;90.76;101423.75;5032507;28;20219;-70
2023/08/10 05:07:12;;;;;;;8.97;4.40;;;;;;;12.10;89.62;101417.66;5017738;28;20197;-69
2023/08/10 05:09:40;;;;;;;5.97;4.17;;;;;;;12.16;89.22;101424.31;5029750;28;21100;-70
2023/08/10 05:12:06;;;;;;;10.27;4.07;;;;;;;12.23;88.78;101423.84;5032998;28;20205;-70
2023/08/10 05:14:33;;;;;;;6.57;4.20;;;;;;;12.29;88.77;101419.94;5034239;28;21137;-70
2023/08/10 05:16:59;;;;;;;6.23;3.53;;;;;;;12.37;88.68;101424.44;5035464;28;20439;-70
2023/08/10 05:19:25;;;;;;;7.50;4.27;;;;;;;12.44;88.84;101422.88;5037877;28;20705;-71
2023/08/10 05:21:52;;;;;;;6.87;4.00;;;;;;;12.49;88.63;101428.00;5038177;28;20214;-70
2023/08/10 05:24:18;;;;;;;5.93;3.43;;;;;;;12.55;88.08;101428.56;5038531;28;20209;-70
2023/08/10 05:26:46;;;;;;;3.77;3.40;;;;;;;12.62;87.31;101434.19;5034372;28;20448;-69
2023/08/10 05:29:12;;;;;;;5.23;3.70;;;;;;;12.67;86.92;101432.13;5037061;28;20237;-70
2023/08/10 05:31:39;;;;;;;5.07;3.40;;;;;;;12.74;87.01;101429.72;5036995;28;20798;-69
2023/08/10 05:34:05;;;;;;;4.07;3.10;;;;;;;12.82;86.97;101441.38;5036804;28;20220;-70
2023/08/10 05:36:31;;;;;;;3.10;2.80;;;;;;;12.90;86.85;101446.69;5036838;28;20211;-70
2023/08/10 05:38:57;;;;;;;6.27;3.20;;;;;;;12.97;86.04;101444.31;5036964;28;20905;-70
2023/08/10 05:41:24;;;;;;;3.77;3.03;;;;;;;13.05;85.29;101442.72;5036691;28;20210;-70
2023/08/10 05:43:52;;;;;;;6.27;2.73;;;;;;;13.12;85.44;101446.44;5034468;28;20211;-70
2023/08/10 05:46:18;;;;;;;3.97;3.00;;;;;;;13.20;85.03;101442.19;5036988;28;20297;-70
2023/08/10 05:48:44;;;;;;;3.87;2.60;;;;;;;13.28;84.03;101443.97;5037920;28;20199;-69
2023/08/10 05:51:11;;;;;;;12.47;2.50;;;;;;;13.35;84.22;101441.59;5041549;28;20209;-70
2023/08/10 05:53:37;;;;;;;4.77;2.40;;;;;;;13.43;83.98;101457.47;5038260;28;20214;-70
2023/08/10 05:56:04;;;;;;;3.13;2.20;;;;;;;13.51;83.26;101455.84;5038514;28;20231;-70
2023/08/10 05:58:30;;;;;;;2.73;2.50;;;;;;;13.58;82.73;101458.75;5039149;28;20719;-70
2023/08/10 06:00:58;;;;;;;4.27;2.20;;;;;;;13.65;82.40;101459.78;5042206;28;20231;-70
2023/08/10 06:03:24;;;;;;;2.20;2.00;;;;;;;13.72;81.98;101459.28;5037713;28;20549;-70
2023/08/10 06:05:51;;;;;;;6.30;2.27;;;;;;;13.79;81.91;101460.31;5037208;28;20215;-70
2023/08/10 06:08:18;;;;;;;4.33;2.07;;;;;;;13.86;81.53;101465.88;5037722;28;20195;-69
2023/08/10 06:10:44;;;;;;;4.17;2.10;;;;;;;13.94;81.61;101462.38;5040003;28;20223;-69
2023/08/10 06:13:11;;;;;;;2.53;2.17;;;;;;;14.03;82.16;101454.31;5039529;28;20202;-70
2023/08/10 06:15:37;;;;;;;2.13;1.93;;;;;;;14.10;81.06;101455.34;5041031;28;20672;-70
2023/08/10 06:18:05;;;;;;;5.43;2.47;;;;;;;14.19;81.02;101461.34;5039897;28;20227;-70
2023/08/10 06:20:33;;;;;;;3.77;2.40;;;;;;;14.25;80.42;101456.63;5038110;28;20672;-70
2023/08/10 06:22:59;;;;;;;2.83;1.90;;;;;;;14.34;80.07;101454.66;5040620;28;20215;-69
2023/08/10 06:25:26;;;;;;;4.83;2.17;;;;;;;14.40;79.83;101456.78;5040738;28;20218;-69
2023/08/10 06:27:52;;;;;;;2.30;1.90;;;;;;;14.47;79.38;101456.22;5041890;28;20715;-69
2023/08/10 06:30:19;;;;;;;4.67;1.90;;;;;;;14.52;80.05;101453.34;5040168;28;20219;-70
2023/08/10 06:32:46;;;;;;;3.53;2.20;;;;;;;14.60;79.98;101457.81;5037239;28;20358;-69
2023/08/10 06:35:14;;;;;;;3.97;2.13;;;;;;;14.68;79.49;101463.03;5043087;28;20200;-70
2023/08/10 06:37:42;;;;;;;2.40;1.90;;;;;;;14.80;77.84;101478.22;5040688;28;20656;-70
2023/08/10 06:40:09;;;;;;;3.97;1.90;;;;;;;14.89;77.68;101482.31;5037671;28;20240;-70
2023/08/10 06:42:36;;;;;;;3.63;2.00;;;;;;;14.99;77.61;101481.09;5036776;28;20212;-70
2023/08/10 06:45:09;;;;;;;4.23;2.07;;;;;;;15.10;75.73;101490.16;5040701;28;20228;-70
2023/08/10 06:47:36;;;;;;;1.87;1.70;;;;;;;15.16;75.17;101480.88;5041488;28;20198;-70
2023/08/10 06:50:02;;;;;;;3.30;1.77;;;;;;;15.25;76.38;101492.94;5041121;28;20241;-70
2023/08/10 06:52:30;;;;;;;2.37;1.83;;;;;;;15.34;74.96;101485.66;5040514;28;20190;-70
2023/08/10 06:54:57;;;;;;;1.90;1.70;;;;;;;15.43;74.76;101494.28;5037833;28;20581;-70
2023/08/10 06:57:23;;;;;;;4.47;2.00;;;;;;;15.51;74.96;101500.59;5042053;28;20218;-70
2023/08/10 06:59:49;;;;;;;1.80;1.70;;;;;;;15.60;74.40;101493.25;5038546;28;20550;-69
2023/08/10 07:02:16;;;;;;;4.47;2.17;;;;;;;15.71;73.55;101502.31;5038415;28;20233;-70
2023/08/10 07:04:44;;;;;;;3.63;2.10;;;;;;;15.76;74.60;101494.88;5038516;28;20209;-70
2023/08/10 07:07:11;;;;;;;2.87;1.70;;;;;;;15.85;74.33;101490.19;5043057;28;20207;-70
2023/08/10 07:09:38;;;;;;;2.50;1.67;;;;;;;15.95;73.93;101495.06;5036726;28;20254;-70
2023/08/10 07:12:05;;;;;;;2.87;1.90;;;;;;;16.06;72.96;101490.78;5039361;28;20203;-70
2023/08/10 07:14:32;;;;;;;2.70;1.90;;;;;;;16.18;73.65;101492.59;5037584;28;20854;-70
2023/08/10 07:16:58;;;;;;;2.90;1.77;;;;;;;16.25;71.29;101493.56;5038897;28;20206;-70
2023/08/10 07:19:24;;;;;;;2.83;1.80;;;;;;;16.33;70.63;101497.19;5041028;28;20226;-69
2023/08/10 07:21:55;;;;;;;3.17;1.80;;;;;;;16.44;72.08;101507.06;5040366;28;20570;-70
2023/08/10 07:24:22;;;;;;;2.27;1.90;;;;;;;16.52;70.51;101503.47;5039881;28;20215;-70
2023/08/10 07:26:50;;;;;;;2.20;1.90;;;;;;;16.62;68.92;101505.59;5037055;28;20203;-70
2023/08/10 07:29:17;;;;;;;1.70;1.60;;;;;;;16.70;68.37;101504.69;5038120;28;20231;-70
2023/08/10 07:31:43;;;;;;;6.07;1.70;;;;;;;16.77;69.95;101502.16;5040404;28;20234;-69
2023/08/10 07:34:10;;;;;;;3.10;2.00;;;;;;;16.85;70.53;101509.25;5042205;28;20192;-70
2023/08/10 07:36:36;;;;;;;5.27;1.83;;;;;;;16.92;68.49;101508.63;5038603;28;20602;-70
2023/08/10 07:39:03;;;;;;;2.47;1.70;;;;;;;17.00;67.86;101503.13;5037630;28;20247;-70
2023/08/10 07:41:30;;;;;;;3.33;1.80;;;;;;;17.07;68.99;101502.53;5036894;28;20273;-70
2023/08/10 07:43:57;;;;;;;2.10;1.63;;;;;;;17.13;67.27;101503.81;5037566;28;20207;-70
2023/08/10 07:46:24;;;;;;;3.77;1.93;;;;;;;17.21;66.79;101502.81;5038882;28;20214;-70
2023/08/10 07:48:50;;;;;;;3.67;1.80;;;;;;;17.26;67.20;101499.91;5038989;28;20195;-71
2023/08/10 07:51:17;;;;;;;2.87;2.00;;;;;;;17.34;66.09;101506.94;5039260;28;20722;-70
2023/08/10 07:53:44;;;;;;;3.13;1.63;;;;;;;17.39;67.20;101504.81;5037805;28;20199;-70
2023/08/10 07:56:11;;;;;;;1.93;1.73;;;;;;;17.46;67.26;101499.63;5039480;28;20314;-71
2023/08/10 07:58:37;;;;;;;3.20;1.90;;;;;;;17.55;66.22;101510.88;5039006;28;20790;-70
2023/08/10 08:01:08;;;;;;;7.17;2.03;;;;;;;17.62;68.24;101505.69;5040896;28;20199;-71
2023/08/10 08:03:35;;;;;;;4.80;1.73;;;;;;;17.70;65.38;101507.38;5039337;28;20257;-70
2023/08/10 08:06:01;;;;;;;2.00;1.63;;;;;;;17.78;68.51;101513.63;5039481;28;20616;-71
2023/08/10 08:08:28;;;;;;;4.20;2.00;;;;;;;17.83;64.35;101514.16;5040387;28;20210;-71
2023/08/10 08:10:55;;;;;;;5.20;2.00;;;;;;;17.88;64.01;101513.88;5040044;28;20709;-71
2023/08/10 08:13:21;;;;;;;4.63;2.00;;;;;;;17.92;63.56;101516.59;5042020;28;20598;-70
2023/08/10 08:15:48;;;;;;;4.73;1.53;;;;;;;17.97;64.52;101514.44;5040953;28;20206;-71
2023/08/10 08:18:42;;;;;;;5.30;2.60;;;;;;;18.05;69.44;101513.44;5039851;28;20229;-70
2023/08/10 08:21:10;;;;;;;4.33;2.07;;;;;;;18.12;66.62;101515.47;5040043;28;20535;-70
2023/08/10 08:23:36;;;;;;;5.03;2.03;;;;;;;18.16;65.93;101511.75;5039376;28;20222;-71
2023/08/10 08:26:03;;;;;;;2.37;1.80;;;;;;;18.24;67.59;101515.31;5041092;28;20276;-70
2023/08/10 08:28:29;;;;;;;3.33;1.80;;;;;;;18.29;64.24;101520.38;5040310;28;20199;-70
2023/08/10 08:30:56;;;;;;;4.20;2.20;;;;;;;18.35;63.00;101516.31;5040970;28;20223;-70
2023/08/10 08:33:22;;;;;;;3.47;1.93;;;;;;;18.40;63.25;101519.50;5042564;28;20199;-70
2023/08/10 08:35:50;;;;;;;4.30;2.20;;;;;;;18.46;64.02;101519.94;5039420;28;20207;-70
2023/08/10 08:38:18;;;;;;;1.80;1.50;;;;;;;18.56;63.54;101514.81;5039403;28;20224;-70
2023/08/10 08:40:45;;;;;;;2.93;1.83;;;;;;;18.62;61.28;101509.94;5041688;28;20297;-70
2023/08/10 08:43:12;;;;;;;3.43;1.70;;;;;;;18.65;62.52;101523.38;5041075;28;20207;-70
2023/08/10 08:45:39;;;;;;;2.47;1.90;;;;;;;18.70;62.30;101520.41;5041045;28;20206;-70
2023/08/10 08:48:07;;;;;;;3.20;2.03;;;;;;;18.77;62.00;101522.41;5042627;28;20217;-70
2023/08/10 08:50:35;;;;;;;3.47;1.73;;;;;;;18.82;61.12;101522.91;5040810;28;20231;-71
2023/08/10 08:53:05;;;;;;;2.20;1.90;;;;;;;18.91;63.46;101518.06;5039641;28;20213;-70
2023/08/10 08:55:32;;;;;;;2.23;1.63;;;;;;;18.98;63.89;101526.22;5037141;28;20206;-70
2023/08/10 08:57:58;;;;;;;1.67;1.50;;;;;;;19.05;63.35;101510.25;5038751;28;20401;-70
2023/08/10 09:00:25;;;;;;;2.60;1.70;;;;;;;19.13;63.52;101514.59;5038712;28;20223;-70
2023/08/10 09:02:51;;;;;;;3.20;1.80;;;;;;;19.23;63.59;101516.69;5033325;28;20207;-70
2023/08/10 09:05:18;;;;;;;3.30;1.80;;;;;;;19.31;61.45;101522.91;5040951;28;20208;-70
2023/08/10 09:07:45;;;;;;;2.43;1.70;;;;;;;19.38;61.52;101526.47;5041510;28;20194;-70
2023/08/10 09:10:12;;;;;;;3.90;2.27;;;;;;;19.42;64.24;101529.97;5039922;28;20233;-70
2023/08/10 09:12:41;;;;;;;1.93;1.70;;;;;;;19.45;62.98;101526.56;5034405;28;20206;-69
2023/08/10 09:15:09;;;;;;;2.17;1.87;;;;;;;19.54;64.34;101529.75;5041077;28;20214;-68
2023/08/10 09:17:38;;;;;;;2.53;2.03;;;;;;;19.60;61.00;101522.94;5037493;28;20549;-69
2023/08/10 09:20:06;;;;;;;4.43;2.30;;;;;;;19.69;59.16;101530.72;5039704;28;20230;-69
2023/08/10 09:22:34;;;;;;;2.33;1.80;;;;;;;19.79;61.31;101530.06;5037401;28;20655;-69
2023/08/10 09:25:01;;;;;;;2.67;1.70;;;;;;;19.84;60.56;101535.13;5037877;28;20207;-70
2023/08/10 09:27:30;;;;;;;2.93;1.80;;;;;;;19.85;60.91;101524.03;5040917;28;20200;-69
2023/08/10 09:29:57;;;;;;;2.40;1.60;;;;;;;19.93;59.67;101527.56;5040705;28;20703;-70
2023/08/10 09:32:23;;;;;;;2.10;1.73;;;;;;;19.99;60.52;101521.53;5043506;28;20473;-70
2023/08/10 09:34:50;;;;;;;3.07;1.70;;;;;;;20.05;58.89;101519.28;5041576;28;20265;-70
2023/08/10 09:37:17;;;;;;;2.57;1.80;;;;;;;20.11;61.31;101523.97;5037354;28;20199;-70
2023/08/10 09:39:43;;;;;;;2.33;1.73;;;;;;;20.16;59.56;101517.50;5036153;28;20697;-70
2023/08/10 09:42:10;;;;;;;2.50;1.67;;;;;;;20.21;60.29;101525.22;5042270;28;20213;-70
2023/08/10 09:44:45;;;;;;;3.10;1.70;;;;;;;20.24;60.88;101519.16;5039850;28;20208;-69
2023/08/10 09:47:12;;;;;;;3.53;2.00;;;;;;;20.28;57.48;101519.97;5039268;28;20613;-69
2023/08/10 09:49:40;;;;;;;3.67;1.70;;;;;;;20.29;59.90;101524.94;5039610;28;20310;-70
2023/08/10 09:52:07;;;;;;;5.90;1.87;;;;;;;20.31;57.63;101529.94;5042820;28;20261;-69
2023/08/10 09:54:34;;;;;;;3.00;1.87;;;;;;;20.38;58.06;101525.41;5042823;28;20200;-70
2023/08/10 09:57:02;;;;;;;1.80;1.63;;;;;;;20.47;59.88;101523.22;5041207;28;20207;-70
2023/08/10 09:59:28;;;;;;;3.13;1.70;;;;;;;20.56;60.87;101526.38;5042141;28;20226;-70
2023/08/10 10:01:57;;;;;;;1.60;1.50;;;;;;;20.64;56.16;101519.91;5039468;28;20203;-70
2023/08/10 10:04:24;;;;;;;2.47;1.80;;;;;;;20.66;57.87;101523.03;5041985;28;20199;-70
2023/08/10 10:06:52;;;;;;;2.20;1.83;;;;;;;20.70;55.26;101515.75;5036933;28;20249;-69
2023/08/10 10:09:19;;;;;;;2.00;1.60;;;;;;;20.81;64.02;101529.28;5042297;28;20313;-70
2023/08/10 10:11:46;;;;;;;3.07;1.40;;;;;;;20.86;53.28;101518.19;5037916;28;20429;-69
2023/08/10 10:14:12;;;;;;;5.40;1.50;;;;;;;20.95;55.00;101518.69;5040255;28;20206;-69
2023/08/10 10:16:39;;;;;;;2.63;1.50;;;;;;;21.07;56.15;101516.47;5043547;28;20221;-69
2023/08/10 10:19:06;;;;;;;1.73;1.57;;;;;;;21.15;54.44;101512.69;5039903;28;20230;-70
2023/08/10 10:21:33;;;;;;;3.90;1.63;;;;;;;21.16;55.58;101513.47;5040564;28;20215;-70
2023/08/10 10:24:03;;;;;;;1.57;1.47;;;;;;;21.15;55.96;101515.38;5040012;28;20647;-70
2023/08/10 10:26:29;;;;;;;2.67;1.73;;;;;;;21.07;52.64;101511.09;5042061;28;20195;-70
2023/08/10 10:29:12;;;;;;;4.53;1.90;;;;;;;21.02;53.62;101511.47;5038645;28;20217;-69
2023/08/10 10:31:38;;;;;;;1.93;1.50;;;;;;;21.05;55.32;101510.69;5038185;28;20192;-70
2023/08/10 10:34:06;;;;;;;2.67;1.93;;;;;;;21.05;54.47;101513.38;5040203;28;20276;-70
2023/08/10 10:36:32;;;;;;;1.90;1.57;;;;;;;21.10;55.53;101509.56;5042028;28;20574;-70
2023/08/10 10:39:07;;;;;;;2.10;1.40;;;;;;;21.12;52.55;101513.41;5039866;28;21213;-70
2023/08/10 10:41:35;;;;;;;2.47;1.70;;;;;;;21.19;57.05;101510.78;5039140;28;20226;-69
2023/08/10 10:44:04;;;;;;;1.93;1.60;;;;;;;21.29;56.22;101510.09;5036865;28;20211;-70
2023/08/10 10:46:38;;;;;;;2.77;1.70;;;;;;;21.35;51.76;101510.50;5039119;28;20619;-70
2023/08/10 10:49:09;;;;;;;4.77;1.73;;;;;;;21.38;51.80;101509.75;5037775;28;20249;-69
2023/08/10 10:51:54;;;;;;;3.35;1.38;;;;;;;21.34;54.32;101512.44;5037106;28;20393;-70
2023/08/10 10:54:20;;;;;;;3.43;1.93;;;;;;;21.28;54.55;101510.47;5039144;28;20602;-70
2023/08/10 10:56:47;;;;;;;1.40;1.30;;;;;;;21.34;56.70;101509.75;5040163;28;20596;-70
2023/08/10 10:59:14;;;;;;;3.60;1.40;;;;;;;21.32;53.33;101509.31;5039919;28;20653;-69
2023/08/10 11:01:41;;;;;;;3.17;1.53;;;;;;;21.26;54.80;101500.09;5040337;28;20234;-67
2023/08/10 11:04:08;;;;;;;2.43;1.50;;;;;;;21.19;52.51;101497.38;5039108;28;20208;-69
2023/08/10 11:06:38;;;;;;;5.13;1.80;;;;;;;21.12;52.87;101496.53;5039337;28;20454;-70
2023/08/10 11:09:07;;;;;;;1.60;1.30;;;;;;;21.09;53.17;101494.59;5035690;28;20305;-70
2023/08/10 11:11:33;;;;;;;4.33;1.73;;;;;;;21.09;53.87;101491.91;5036477;28;20597;-69
2023/08/10 11:14:00;;;;;;;2.60;1.60;;;;;;;21.17;57.77;101485.44;5035935;28;20214;-69
2023/08/10 11:16:26;;;;;;;1.77;1.30;;;;;;;21.23;52.41;101479.34;5042919;28;20685;-69
2023/08/10 11:18:53;;;;;;;1.90;1.70;;;;;;;21.36;52.82;101480.56;5039677;28;20626;-70
2023/08/10 11:21:22;;;;;;;3.83;1.60;;;;;;;21.45;54.84;101480.22;5039093;28;20233;-69
2023/08/10 11:23:49;;;;;;;3.50;1.60;;;;;;;21.57;53.21;101480.66;5032772;28;20900;-70
2023/08/10 11:26:16;;;;;;;2.90;1.60;;;;;;;21.65;52.47;101473.41;5041760;28;20211;-70